createdAt,value
2018-06-25T00:02:23.948Z,99906.47
2018-06-25T00:05:00.744Z,99905.25
2018-06-25T00:07:36.915Z,99904.89
2018-06-25T00:10:12.425Z,99909.30
2018-06-25T00:12:48.283Z,99909.91
2018-06-25T00:15:24.415Z,99911.62
2018-06-25T00:18:00.900Z,99915.45
2018-06-25T00:20:38.351Z,99920.45
2018-06-25T00:23:16.176Z,99926.50
2018-06-25T00:25:52.950Z,99934.41
2018-06-25T00:28:34.102Z,99936.41
2018-06-25T00:31:14.786Z,99937.14
2018-06-25T00:33:54.726Z,99933.09
2018-06-25T00:36:34.078Z,99935.35
2018-06-25T00:39:12.153Z,99933.80
2018-06-25T00:41:48.959Z,99935.50
2018-06-25T00:44:24.826Z,99934.56
2018-06-25T00:47:01.665Z,99929.47
2018-06-25T00:49:43.188Z,99927.61
2018-06-25T00:52:21.609Z,99919.02
2018-06-25T00:54:56.824Z,99919.19
2018-06-25T00:57:36.136Z,99916.17
2018-06-25T01:00:10.747Z,99916.11
2018-06-25T01:02:46.812Z,99912.11
2018-06-25T01:05:22.473Z,99907.25
2018-06-25T01:07:58.074Z,99902.46
2018-06-25T01:10:35.302Z,99899.27
2018-06-25T01:13:11.625Z,99901.13
2018-06-25T01:15:51.295Z,99909.02
2018-06-25T01:18:26.648Z,99917.27
2018-06-25T01:21:03.782Z,99917.66
2018-06-25T01:23:40.895Z,99926.14
2018-06-25T01:26:17.384Z,99935.86
2018-06-25T01:28:51.940Z,99942.95
2018-06-25T01:31:31.996Z,99948.10
2018-06-25T01:34:07.517Z,99946.53
2018-06-25T01:36:44.314Z,99939.94
2018-06-25T01:39:22.725Z,99951.37
2018-06-25T01:42:02.180Z,99957.41
2018-06-25T01:44:37.979Z,99949.66
2018-06-25T01:47:18.165Z,99944.23
2018-06-25T01:49:54.022Z,99930.10
2018-06-25T01:52:30.284Z,99937.98
2018-06-25T01:55:12.031Z,99950.03
2018-06-25T01:57:51.089Z,99969.52
2018-06-25T02:00:26.893Z,99973.86
2018-06-25T02:03:02.970Z,99975.10
2018-06-25T02:05:38.269Z,99965.05
2018-06-25T02:08:15.380Z,99956.30
2018-06-25T02:10:54.755Z,99947.27
2018-06-25T02:13:35.137Z,99950.11
2018-06-25T02:16:11.060Z,99943.10
2018-06-25T02:18:47.233Z,99949.66
2018-06-25T02:21:23.051Z,99958.29
2018-06-25T02:23:59.047Z,99969.73
2018-06-25T02:29:25.608Z,99975.69
2018-06-25T02:32:01.617Z,99975.11
2018-06-25T02:34:37.615Z,99967.73
2018-06-25T02:37:12.499Z,99947.06
2018-06-25T02:39:50.024Z,99949.97
2018-06-25T02:42:25.839Z,99958.80
2018-06-25T02:45:01.659Z,99969.98
2018-06-25T02:47:38.271Z,99969.98
2018-06-25T02:50:14.892Z,99972.95
2018-06-25T02:52:51.377Z,99958.59
2018-06-25T02:55:28.986Z,99958.80
2018-06-25T02:58:05.110Z,99984.27
2018-06-25T03:00:40.651Z,99994.59
2018-06-25T03:03:16.569Z,99989.83
2018-06-25T03:05:52.113Z,99975.23
2018-06-25T03:08:28.118Z,99960.64
2018-06-25T03:11:03.364Z,99954.02
2018-06-25T03:13:39.548Z,99969.04
2018-06-25T03:16:14.115Z,99996.47
2018-06-25T03:18:49.798Z,100030.63
2018-06-25T03:21:31.057Z,100039.83
2018-06-25T03:24:07.534Z,100034.63
2018-06-25T03:26:43.680Z,100022.88
2018-06-25T03:29:19.879Z,100006.30
2018-06-25T03:31:56.323Z,99989.02
2018-06-25T03:34:32.180Z,99977.50
2018-06-25T03:37:07.784Z,99962.25
2018-06-25T03:39:42.976Z,99952.59
2018-06-25T03:42:21.545Z,99957.42
2018-06-25T03:44:57.535Z,99975.64
2018-06-25T03:47:33.377Z,100002.51
2018-06-25T03:50:08.931Z,100018.80
2018-06-25T03:52:45.843Z,100030.13
2018-06-25T03:55:22.499Z,100046.06
2018-06-25T03:57:58.972Z,100064.95
2018-06-25T04:00:35.464Z,100079.92
2018-06-25T04:03:10.995Z,100089.23
2018-06-25T04:05:48.637Z,100058.00
2018-06-25T04:08:23.995Z,100077.55
2018-06-25T04:10:59.958Z,100092.45
2018-06-25T04:13:35.355Z,100116.95
2018-06-25T04:16:11.836Z,100121.66
2018-06-25T04:18:51.516Z,100116.95
2018-06-25T04:21:27.354Z,100102.02
2018-06-25T04:24:02.987Z,100099.56
2018-06-25T04:26:38.814Z,100076.80
2018-06-25T04:29:14.579Z,100043.44
2018-06-25T04:31:50.588Z,100016.59
2018-06-25T04:34:25.775Z,100019.01
2018-06-25T04:37:05.452Z,100021.16
2018-06-25T04:39:40.840Z,100021.16
2018-06-25T04:42:16.473Z,100003.48
2018-06-25T04:44:53.113Z,99991.28
2018-06-25T04:47:28.965Z,99988.75
2018-06-25T04:50:04.006Z,100011.83
2018-06-25T04:52:40.005Z,100023.54
2018-06-25T04:55:15.837Z,100017.98
2018-06-25T04:57:53.121Z,99998.30
2018-06-25T05:00:30.452Z,99977.64
2018-06-25T05:03:05.452Z,99956.22
2018-06-25T05:05:41.185Z,99950.28
2018-06-25T05:08:16.815Z,99939.72
2018-06-25T05:10:52.657Z,99947.89
2018-06-25T05:13:28.498Z,99965.62
2018-06-25T05:16:03.371Z,99985.49
2018-06-25T05:18:38.895Z,100008.96
2018-06-25T05:21:13.775Z,100029.16
2018-06-25T05:23:49.947Z,100051.19
2018-06-25T05:26:25.515Z,100063.86
2018-06-25T05:29:00.281Z,100065.50
2018-06-25T05:31:36.248Z,100051.57
2018-06-25T05:34:11.842Z,100046.55
2018-06-25T05:36:47.549Z,100037.53
2018-06-25T05:39:22.745Z,100029.41
2018-06-25T05:41:57.868Z,100031.62
2018-06-25T05:44:34.009Z,100028.97
2018-06-25T05:47:09.271Z,100028.97
2018-06-25T05:49:45.611Z,100031.12
2018-06-25T05:52:21.468Z,100021.16
2018-06-25T05:54:58.764Z,100006.81
2018-06-25T05:57:34.474Z,100012.73
2018-06-25T06:00:11.600Z,100018.88
2018-06-25T06:02:50.750Z,100030.94
2018-06-25T06:05:43.214Z,100054.54
